Terminal Aerodrome Forecast
Issued by NWS

Home | Current Version | Previous Version | Text Only | Print | Product List | Glossary On
Versions: 1 2 3 4 5 6 7 8 9 10 11 12 13 14
000
FTUS46 KPQR 240533
TAFONP
TAF
KONP 240533Z 2406/2506 36006KT 6SM HZ SKC
     FM240800 08010KT P6SM SKC
     FM241900 01012G20KT P6SM SKC
     FM250400 VRB04KT 5SM HZ SKC=

USA.gov is the U.S. government's official web portal to all federal, state and local government web resources and services.